Tallulah, Louisiana
Current Conditions -  °F | °C
As of 12:53 PM on Thursday 30 Oct 2014 (Local Time) from KTVR Reporting Station
Clear Clear  
Wind Chill: 71°   Ceiling: Unl
Heat Index: 71°   Visibility: 10mi
Dew Point: 43°   Wind: 5mph
Humidity: 36%   Direction: NA
Pressure: 30.13"   Gusts: NA
Location:  32.41°N, 91.19°W
Report Text: KTVR 301753Z AUTO VRB04KT 10SM CLR 22/06 A3013 RMK AO2 SLP209 T02170061 10217 20028 58017
Loading
Personal Weather Stations






























Interactive Weather Map
Tropical Storm Tracking
New forecast layout! Learn more

10-Day Weather Forecast

Advertisements
Track Severe Weather on mobile